Time;durP1;ratioP1;P1;durP2;ratioP2;P2;SDS_P1;SDS_P2;PMS_P1;PMS_P2;Temp;Humidity;BMP_temperature;BMP_pressure;BME280_temperature;BME280_humidity;BME280_pressure;Samples;Min_cycle;Max_cycle;Signal;HPM_P1;HPM_P2
2023/08/07 00:00:34;;;;;;;0.65;0.20;;;14.60;99.90;;;;;;4981729;28;20130;-64
2023/08/07 00:03:00;;;;;;;0.82;0.32;;;14.60;99.90;;;;;;4988450;28;20121;-65
2023/08/07 00:05:25;;;;;;;0.13;0.10;;;14.60;99.90;;;;;;4979142;28;20085;-65
2023/08/07 00:07:51;;;;;;;0.75;0.30;;;14.60;99.90;;;;;;4984514;28;20050;-67
2023/08/07 00:10:17;;;;;;;0.88;0.40;;;14.60;99.90;;;;;;4985279;28;20097;-67
2023/08/07 00:12:43;;;;;;;0.52;0.47;;;14.50;99.90;;;;;;4984289;28;20501;-67
2023/08/07 00:15:09;;;;;;;0.25;0.17;;;14.60;99.90;;;;;;4978648;28;20087;-67
2023/08/07 00:17:35;;;;;;;0.55;0.20;;;14.50;99.90;;;;;;4982971;28;20104;-66
2023/08/07 00:20:01;;;;;;;1.13;0.20;;;14.50;99.90;;;;;;4983924;28;20042;-67
2023/08/07 00:22:27;;;;;;;0.52;0.30;;;14.50;99.90;;;;;;4977566;28;20035;-67
2023/08/07 00:24:53;;;;;;;0.52;0.13;;;14.50;99.90;;;;;;4984689;28;20105;-66
2023/08/07 00:27:18;;;;;;;0.60;0.30;;;14.50;99.90;;;;;;4968071;28;20487;-67
2023/08/07 00:29:44;;;;;;;0.55;0.30;;;14.60;99.90;;;;;;4983065;28;20046;-67
2023/08/07 00:32:09;;;;;;;0.17;0.10;;;14.50;99.90;;;;;;4977421;28;20070;-66
2023/08/07 00:34:35;;;;;;;0.43;0.20;;;14.50;99.90;;;;;;4979707;28;20062;-67
2023/08/07 00:37:01;;;;;;;0.30;0.20;;;14.50;99.90;;;;;;4983911;28;20081;-67
2023/08/07 00:39:27;;;;;;;0.47;0.22;;;14.50;99.90;;;;;;4986080;28;20575;-67
2023/08/07 00:41:52;;;;;;;0.30;0.20;;;14.50;99.90;;;;;;4983005;28;20057;-67
2023/08/07 00:44:18;;;;;;;0.35;0.25;;;14.50;99.90;;;;;;4984511;28;20041;-66
2023/08/07 00:46:44;;;;;;;0.57;0.30;;;14.50;99.90;;;;;;4980451;28;20038;-67
2023/08/07 00:49:11;;;;;;;0.20;0.10;;;14.50;99.90;;;;;;4984406;28;20092;-67
2023/08/07 00:51:38;;;;;;;0.22;0.20;;;14.50;99.90;;;;;;4975756;28;20051;-67
2023/08/07 00:54:05;;;;;;;0.45;0.20;;;14.50;99.90;;;;;;4983521;28;20092;-67
2023/08/07 00:56:32;;;;;;;0.43;0.20;;;14.50;99.90;;;;;;4982487;28;20034;-67
2023/08/07 00:58:59;;;;;;;0.55;0.20;;;14.50;99.90;;;;;;4983537;28;20051;-66
2023/08/07 01:01:25;;;;;;;0.20;0.10;;;14.50;99.90;;;;;;4981811;28;20038;-67
2023/08/07 01:03:51;;;;;;;0.20;0.15;;;14.50;99.90;;;;;;4980076;28;20383;-67
2023/08/07 01:06:17;;;;;;;0.45;0.30;;;14.50;99.90;;;;;;4984058;28;20039;-66
2023/08/07 01:08:43;;;;;;;0.60;0.20;;;14.40;99.90;;;;;;4984755;28;20145;-67
2023/08/07 01:11:48;;;;;;;0.43;0.25;;;14.40;99.90;;;;;;4976797;28;20427;-66
2023/08/07 01:14:52;;;;;;;0.35;0.35;;;14.40;99.90;;;;;;4986843;28;20375;-67
2023/08/07 01:17:21;;;;;;;1.02;0.30;;;14.40;99.90;;;;;;4988275;28;20065;-67
2023/08/07 01:19:48;;;;;;;0.45;0.20;;;14.40;99.90;;;;;;4982314;28;20042;-67
2023/08/07 01:22:16;;;;;;;0.10;0.00;;;14.40;99.90;;;;;;4980824;28;20491;-67
2023/08/07 01:24:46;;;;;;;0.20;0.10;;;14.40;99.90;;;;;;4983255;28;20058;-67
2023/08/07 01:27:18;;;;;;;0.20;0.10;;;14.40;99.90;;;;;;4980815;28;20116;-67
2023/08/07 01:30:16;;;;;;;0.28;0.22;;;14.40;99.90;;;;;;4988195;28;20046;-67
2023/08/07 01:32:52;;;;;;;0.15;0.10;;;14.40;99.90;;;;;;4986055;28;20116;-67
2023/08/07 01:35:25;;;;;;;0.55;0.32;;;14.40;99.90;;;;;;4981374;28;20050;-67
2023/08/07 01:37:53;;;;;;;0.20;0.10;;;14.40;99.90;;;;;;4986556;28;20040;-67
2023/08/07 01:40:19;;;;;;;0.05;0.00;;;14.40;99.90;;;;;;4987763;28;20398;-67
2023/08/07 01:42:47;;;;;;;0.00;0.00;;;14.40;99.90;;;;;;4981296;28;20121;-67
2023/08/07 01:45:12;;;;;;;0.20;0.10;;;14.40;99.90;;;;;;4983741;28;20460;-66
2023/08/07 01:47:38;;;;;;;0.00;0.00;;;14.40;99.90;;;;;;4981550;28;20130;-67
2023/08/07 01:50:04;;;;;;;0.10;0.00;;;14.40;99.90;;;;;;4983805;28;20113;-67
2023/08/07 01:52:30;;;;;;;0.00;0.00;;;14.30;99.90;;;;;;4982168;28;20491;-67
2023/08/07 01:54:56;;;;;;;0.20;0.00;;;14.30;99.90;;;;;;4981360;28;20039;-66
2023/08/07 01:57:21;;;;;;;0.10;0.05;;;14.40;99.90;;;;;;4980503;28;20093;-67
2023/08/07 01:59:47;;;;;;;0.45;0.10;;;14.30;99.90;;;;;;4986135;28;20076;-67
2023/08/07 02:02:13;;;;;;;0.10;0.00;;;14.30;99.90;;;;;;4985297;28;20085;-66
2023/08/07 02:04:38;;;;;;;1.85;0.32;;;14.30;99.90;;;;;;4986986;28;20038;-66
2023/08/07 02:07:04;;;;;;;0.20;0.10;;;14.30;99.90;;;;;;4991345;28;20044;-66
2023/08/07 02:09:30;;;;;;;0.38;0.22;;;14.20;99.90;;;;;;4979467;28;20046;-66
2023/08/07 02:11:55;;;;;;;0.00;0.00;;;14.20;99.90;;;;;;4984030;28;20042;-66
2023/08/07 02:14:21;;;;;;;0.35;0.10;;;14.10;99.90;;;;;;4984962;28;20503;-67
2023/08/07 02:16:47;;;;;;;0.20;0.10;;;14.00;99.90;;;;;;4983272;28;20166;-67
2023/08/07 02:19:12;;;;;;;0.20;0.10;;;14.00;99.90;;;;;;4985992;28;20129;-66
2023/08/07 02:21:38;;;;;;;0.57;0.08;;;14.00;99.90;;;;;;4984555;28;20038;-67
2023/08/07 02:24:04;;;;;;;0.30;0.10;;;13.90;99.90;;;;;;4988667;28;20034;-66
2023/08/07 02:26:30;;;;;;;0.85;0.25;;;13.90;99.90;;;;;;4979597;28;20065;-67
2023/08/07 02:28:55;;;;;;;0.35;0.10;;;13.80;99.90;;;;;;4981189;28;20066;-67
2023/08/07 02:31:21;;;;;;;0.28;0.10;;;13.80;99.90;;;;;;4985788;28;20276;-67
2023/08/07 02:33:48;;;;;;;0.17;0.00;;;13.70;99.90;;;;;;4987847;28;20042;-66
2023/08/07 02:36:13;;;;;;;0.30;0.15;;;13.70;99.90;;;;;;4988344;28;20473;-66
2023/08/07 02:38:39;;;;;;;0.30;0.00;;;13.70;99.90;;;;;;4983002;28;20105;-67
2023/08/07 02:41:05;;;;;;;0.22;0.08;;;13.60;99.90;;;;;;4985157;28;20407;-67
2023/08/07 02:43:32;;;;;;;0.30;0.10;;;13.60;99.90;;;;;;4990496;28;20502;-67
2023/08/07 02:45:58;;;;;;;1.42;0.25;;;13.60;99.90;;;;;;4981532;28;20108;-67
2023/08/07 02:48:24;;;;;;;0.38;0.08;;;13.50;99.90;;;;;;4984223;28;20034;-67
2023/08/07 02:50:51;;;;;;;0.60;0.10;;;13.50;99.90;;;;;;4984118;28;20158;-67
2023/08/07 02:53:17;;;;;;;1.00;0.08;;;13.40;99.90;;;;;;4982817;28;20074;-67
2023/08/07 02:55:44;;;;;;;0.08;0.03;;;13.40;99.90;;;;;;4982915;28;20074;-67
2023/08/07 02:58:09;;;;;;;0.10;0.00;;;13.40;99.90;;;;;;4978264;28;20577;-67
2023/08/07 03:00:35;;;;;;;0.10;0.00;;;13.40;99.90;;;;;;4985290;28;20046;-67
2023/08/07 03:03:01;;;;;;;0.00;0.00;;;13.50;99.90;;;;;;4985308;28;20049;-67
2023/08/07 03:05:26;;;;;;;0.10;0.10;;;13.50;99.90;;;;;;4989407;28;20038;-67
2023/08/07 03:07:52;;;;;;;1.75;0.00;;;13.50;99.90;;;;;;4983690;28;20502;-67
2023/08/07 03:10:19;;;;;;;0.15;0.00;;;13.50;99.90;;;;;;4985714;28;20046;-67
2023/08/07 03:12:44;;;;;;;0.45;0.00;;;13.50;99.90;;;;;;4981245;28;20047;-67
2023/08/07 03:15:10;;;;;;;0.00;0.00;;;13.50;99.90;;;;;;4986205;28;20407;-67
2023/08/07 03:17:36;;;;;;;0.15;0.10;;;13.50;99.90;;;;;;4981830;28;20130;-66
2023/08/07 03:20:03;;;;;;;0.10;0.08;;;13.50;99.90;;;;;;4987632;28;20042;-66
2023/08/07 03:22:29;;;;;;;0.43;0.00;;;13.50;99.90;;;;;;4977903;28;20116;-67
2023/08/07 03:24:55;;;;;;;0.00;0.00;;;13.50;99.90;;;;;;4995982;28;20536;-67
2023/08/07 03:27:21;;;;;;;0.10;0.00;;;13.50;99.90;;;;;;4981907;28;20122;-66
2023/08/07 03:29:47;;;;;;;0.45;0.00;;;13.50;99.90;;;;;;4985008;28;20038;-66
2023/08/07 03:32:12;;;;;;;0.00;0.00;;;13.50;99.90;;;;;;4980698;28;20117;-66
2023/08/07 03:34:38;;;;;;;0.00;0.00;;;13.50;99.90;;;;;;4979957;28;20043;-67
2023/08/07 03:37:04;;;;;;;0.70;0.10;;;13.50;99.90;;;;;;4986912;28;20046;-67
2023/08/07 03:39:29;;;;;;;0.77;0.08;;;13.50;99.90;;;;;;4986953;28;20105;-66
2023/08/07 03:41:55;;;;;;;0.65;0.00;;;13.50;99.90;;;;;;4981391;28;20062;-66
2023/08/07 03:44:21;;;;;;;0.75;0.08;;;13.50;99.90;;;;;;4982198;28;20505;-67
2023/08/07 03:46:47;;;;;;;0.35;0.10;;;13.50;99.90;;;;;;4984001;28;20125;-67
2023/08/07 03:49:12;;;;;;;1.10;0.10;;;13.60;99.90;;;;;;5002607;28;20513;-67
2023/08/07 03:51:38;;;;;;;2.95;0.52;;;13.60;99.90;;;;;;4983913;28;20372;-67
2023/08/07 03:54:04;;;;;;;0.47;0.10;;;13.70;99.90;;;;;;4976743;28;20038;-67
2023/08/07 03:56:36;;;;;;;0.20;0.10;;;13.70;99.90;;;;;;4984807;28;20114;-67
2023/08/07 03:59:02;;;;;;;0.50;0.20;;;13.70;99.90;;;;;;4979769;28;20042;-68
2023/08/07 04:01:27;;;;;;;0.40;0.00;;;13.80;99.90;;;;;;4986655;28;20443;-67
2023/08/07 04:03:53;;;;;;;0.00;0.00;;;13.80;99.90;;;;;;4978431;28;20447;-67
2023/08/07 04:06:20;;;;;;;0.03;0.00;;;13.80;99.90;;;;;;4987582;28;20047;-67
2023/08/07 04:08:46;;;;;;;0.00;0.00;;;13.80;99.90;;;;;;4984742;28;20050;-67
2023/08/07 04:11:13;;;;;;;1.30;0.10;;;13.90;99.90;;;;;;4984272;28;20138;-67
2023/08/07 04:13:39;;;;;;;0.10;0.10;;;13.90;99.90;;;;;;4979620;28;20101;-67
2023/08/07 04:16:05;;;;;;;0.38;0.03;;;13.90;99.90;;;;;;4985152;28;20478;-68
2023/08/07 04:18:32;;;;;;;0.63;0.10;;;13.90;99.90;;;;;;4986343;28;20089;-67
2023/08/07 04:20:59;;;;;;;0.57;0.22;;;14.00;99.90;;;;;;4983300;28;20049;-68
2023/08/07 04:23:25;;;;;;;0.30;0.30;;;14.00;99.90;;;;;;4979027;28;20039;-67
2023/08/07 04:25:52;;;;;;;0.10;0.10;;;14.00;99.90;;;;;;4982940;28;20386;-67
2023/08/07 04:28:18;;;;;;;0.20;0.10;;;14.00;99.90;;;;;;4985026;28;20100;-67
2023/08/07 04:30:45;;;;;;;1.20;0.13;;;14.10;99.90;;;;;;4987889;28;20046;-67
2023/08/07 04:33:11;;;;;;;3.72;0.17;;;14.00;99.90;;;;;;4981801;28;20077;-67
2023/08/07 04:35:37;;;;;;;0.98;0.10;;;14.10;99.90;;;;;;4981430;28;20078;-67
2023/08/07 04:38:03;;;;;;;0.22;0.13;;;14.10;99.90;;;;;;4985422;28;20039;-67
2023/08/07 04:40:29;;;;;;;0.28;0.20;;;14.10;99.90;;;;;;4980012;28;20525;-67
2023/08/07 04:42:55;;;;;;;0.85;0.10;;;14.10;99.90;;;;;;4980200;28;20077;-67
2023/08/07 04:45:21;;;;;;;0.30;0.10;;;14.10;99.90;;;;;;4981466;28;20053;-67
2023/08/07 04:47:47;;;;;;;1.55;0.30;;;14.10;99.90;;;;;;4987938;28;20490;-67
2023/08/07 04:50:13;;;;;;;0.32;0.00;;;14.10;99.90;;;;;;4975425;28;20043;-67
2023/08/07 04:52:39;;;;;;;0.00;0.00;;;14.10;99.90;;;;;;4995718;28;20117;-67
2023/08/07 04:55:05;;;;;;;0.00;0.00;;;14.10;99.90;;;;;;4983516;28;20035;-67
2023/08/07 04:57:30;;;;;;;0.43;0.10;;;14.10;99.90;;;;;;4979688;28;20038;-67
2023/08/07 04:59:56;;;;;;;0.17;0.03;;;14.10;99.90;;;;;;4975199;28;20057;-67
2023/08/07 05:02:22;;;;;;;0.43;0.10;;;14.10;99.90;;;;;;4983739;28;20034;-67
2023/08/07 05:04:48;;;;;;;0.43;0.30;;;14.10;99.90;;;;;;4983336;28;20125;-64
2023/08/07 05:07:13;;;;;;;0.28;0.20;;;14.10;99.90;;;;;;4983164;28;20037;-64
2023/08/07 05:09:39;;;;;;;0.73;0.22;;;14.20;99.90;;;;;;4975852;28;20039;-64
2023/08/07 05:12:06;;;;;;;0.30;0.10;;;14.30;99.90;;;;;;4980629;28;20109;-66
2023/08/07 05:14:32;;;;;;;0.10;0.10;;;14.20;99.90;;;;;;4982807;28;20392;-64
2023/08/07 05:16:58;;;;;;;0.20;0.10;;;14.30;99.90;;;;;;4978043;28;20035;-64
2023/08/07 05:19:23;;;;;;;0.25;0.08;;;14.30;99.90;;;;;;4981387;28;20038;-65
2023/08/07 05:21:49;;;;;;;0.30;0.10;;;14.30;99.90;;;;;;4983248;28;20046;-64
2023/08/07 05:24:15;;;;;;;0.25;0.10;;;14.30;99.90;;;;;;4985244;28;20054;-64
2023/08/07 05:26:41;;;;;;;0.00;0.00;;;14.40;99.90;;;;;;4982183;28;20046;-64
2023/08/07 05:29:07;;;;;;;0.03;0.00;;;14.40;99.90;;;;;;4985928;28;20051;-64
2023/08/07 05:31:34;;;;;;;3.83;1.10;;;14.30;99.90;;;;;;4980978;28;20516;-64
2023/08/07 05:33:59;;;;;;;4.32;0.30;;;14.30;99.90;;;;;;4981512;28;20542;-68
2023/08/07 05:36:25;;;;;;;1.42;0.13;;;14.30;99.90;;;;;;4959101;28;20114;-68
2023/08/07 05:38:51;;;;;;;1.63;0.35;;;14.30;99.90;;;;;;4963603;28;20078;-68
2023/08/07 05:41:17;;;;;;;0.30;0.20;;;14.30;99.90;;;;;;4963948;28;20045;-68
2023/08/07 05:43:43;;;;;;;0.28;0.15;;;14.30;99.90;;;;;;4971272;28;20065;-68
2023/08/07 05:46:08;;;;;;;0.20;0.20;;;14.30;99.90;;;;;;4965652;28;20051;-68
2023/08/07 05:48:34;;;;;;;0.95;0.10;;;14.20;99.90;;;;;;4967220;28;20038;-68
2023/08/07 05:51:00;;;;;;;0.28;0.03;;;14.30;99.90;;;;;;4965348;28;20060;-68
2023/08/07 05:53:26;;;;;;;0.52;0.52;;;14.20;99.90;;;;;;4967776;28;20041;-68
2023/08/07 05:55:51;;;;;;;3.40;0.13;;;14.20;99.90;;;;;;4969741;28;20051;-68
2023/08/07 05:58:17;;;;;;;2.17;0.20;;;14.20;99.90;;;;;;4962531;28;20556;-68
2023/08/07 06:00:43;;;;;;;0.20;0.10;;;14.20;99.90;;;;;;4967941;28;20042;-67
2023/08/07 06:03:08;;;;;;;0.10;0.10;;;14.20;99.90;;;;;;4948549;28;20395;-68
2023/08/07 06:05:37;;;;;;;0.30;0.10;;;14.30;99.90;;;;;;4970159;28;20043;-68
2023/08/07 06:08:03;;;;;;;0.10;0.10;;;14.30;99.90;;;;;;4965603;28;20070;-67
2023/08/07 06:10:29;;;;;;;3.72;0.20;;;14.50;99.90;;;;;;4970162;28;20043;-67
2023/08/07 06:12:55;;;;;;;0.20;0.10;;;14.50;99.90;;;;;;4965183;28;20443;-67
2023/08/07 06:15:20;;;;;;;1.35;0.63;;;14.70;99.90;;;;;;4966210;28;20067;-68
2023/08/07 06:17:46;;;;;;;0.00;0.00;;;14.80;99.90;;;;;;4964266;28;20035;-68
2023/08/07 06:20:14;;;;;;;0.45;0.22;;;15.00;99.90;;;;;;4970418;28;20035;-67
2023/08/07 06:22:40;;;;;;;1.05;0.35;;;15.10;99.90;;;;;;4964116;28;20050;-67
2023/08/07 06:25:06;;;;;;;0.45;0.28;;;15.20;99.90;;;;;;4965019;28;20041;-67
2023/08/07 06:27:32;;;;;;;0.50;0.20;;;15.30;99.90;;;;;;4949809;28;20049;-67
2023/08/07 06:29:58;;;;;;;3.10;0.52;;;15.30;99.90;;;;;;4949523;28;20043;-67
2023/08/07 06:32:25;;;;;;;0.10;0.10;;;15.30;99.90;;;;;;4964761;28;20054;-69
2023/08/07 06:34:52;;;;;;;0.17;0.15;;;15.20;99.90;;;;;;4969120;28;20129;-67
2023/08/07 06:37:17;;;;;;;0.52;0.30;;;15.00;99.90;;;;;;4982260;28;20096;-67
2023/08/07 06:39:43;;;;;;;0.50;0.03;;;14.90;99.90;;;;;;4986754;28;20042;-67
2023/08/07 06:42:11;;;;;;;0.38;0.35;;;14.80;99.90;;;;;;4987008;28;20506;-67
2023/08/07 06:44:38;;;;;;;0.82;0.55;;;14.70;99.90;;;;;;4985365;28;20751;-68
2023/08/07 06:47:04;;;;;;;0.32;0.10;;;14.60;99.90;;;;;;4983761;28;20085;-67
2023/08/07 06:49:31;;;;;;;1.15;0.10;;;14.50;99.90;;;;;;4989861;28;20078;-68
2023/08/07 06:51:58;;;;;;;0.10;0.10;;;14.50;99.90;;;;;;4989634;28;20120;-67
2023/08/07 06:54:24;;;;;;;2.72;0.45;;;14.50;99.90;;;;;;4986426;28;20031;-67
2023/08/07 06:56:49;;;;;;;2.38;0.13;;;14.40;99.90;;;;;;4988492;28;20104;-67
2023/08/07 06:59:15;;;;;;;1.73;0.30;;;14.50;99.90;;;;;;4990519;28;20046;-68
2023/08/07 07:01:41;;;;;;;1.10;0.32;;;14.50;99.90;;;;;;4987458;28;20069;-67
2023/08/07 07:04:06;;;;;;;0.10;0.10;;;14.50;99.90;;;;;;4986593;28;20042;-67
2023/08/07 07:06:33;;;;;;;0.30;0.20;;;14.50;99.90;;;;;;4988423;28;20048;-66
2023/08/07 07:08:59;;;;;;;0.35;0.17;;;14.50;99.90;;;;;;4989239;28;20048;-67
2023/08/07 07:11:25;;;;;;;0.10;0.10;;;14.50;99.90;;;;;;4987078;28;20306;-67
2023/08/07 07:13:52;;;;;;;0.60;0.20;;;14.70;99.90;;;;;;4984954;28;20045;-67
2023/08/07 07:16:21;;;;;;;2.65;0.30;;;14.80;99.90;;;;;;4987077;28;20420;-66
2023/08/07 07:18:51;;;;;;;0.70;0.30;;;14.80;99.90;;;;;;4990370;28;20038;-67
2023/08/07 07:21:17;;;;;;;0.22;0.10;;;14.90;99.90;;;;;;4987173;28;20070;-67
2023/08/07 07:23:43;;;;;;;0.20;0.20;;;15.10;99.90;;;;;;4986417;28;20058;-66
2023/08/07 07:26:08;;;;;;;1.08;0.25;;;15.20;99.90;;;;;;4988929;28;20093;-66
2023/08/07 07:28:34;;;;;;;2.05;0.65;;;15.40;99.90;;;;;;4988749;28;20130;-66
2023/08/07 07:31:00;;;;;;;0.52;0.35;;;15.50;99.90;;;;;;4984192;28;20073;-66
2023/08/07 07:33:26;;;;;;;0.80;0.20;;;15.60;99.90;;;;;;4987439;28;20177;-66
2023/08/07 07:35:52;;;;;;;0.30;0.15;;;15.60;99.90;;;;;;4985589;28;20498;-67
2023/08/07 07:38:17;;;;;;;0.32;0.20;;;15.50;99.90;;;;;;4987685;28;20054;-67
2023/08/07 07:40:43;;;;;;;0.15;0.10;;;15.40;99.90;;;;;;4988135;28;20038;-66
2023/08/07 07:43:09;;;;;;;1.08;0.20;;;15.40;99.90;;;;;;4987401;28;20050;-66
2023/08/07 07:45:35;;;;;;;0.20;0.17;;;15.40;99.90;;;;;;4987676;28;20038;-66
2023/08/07 07:48:05;;;;;;;0.30;0.10;;;15.50;99.90;;;;;;4987754;28;20453;-65
2023/08/07 07:50:31;;;;;;;2.10;0.20;;;15.50;99.90;;;;;;4984748;28;20034;-65
2023/08/07 07:52:56;;;;;;;1.58;0.30;;;15.50;99.90;;;;;;4986651;28;20360;-66
2023/08/07 07:55:22;;;;;;;1.08;0.10;;;15.50;99.90;;;;;;4989611;28;20066;-66
2023/08/07 07:57:48;;;;;;;0.40;0.20;;;15.40;99.90;;;;;;4990821;28;20646;-66
2023/08/07 08:00:14;;;;;;;1.25;0.10;;;15.30;99.90;;;;;;4983823;28;20546;-66
2023/08/07 08:02:43;;;;;;;0.30;0.10;;;15.20;99.90;;;;;;4989834;28;20042;-66
2023/08/07 08:05:12;;;;;;;0.68;0.10;;;15.00;99.90;;;;;;4988430;28;20076;-66
2023/08/07 08:07:39;;;;;;;0.43;0.10;;;15.00;99.90;;;;;;4991018;28;20080;-66
2023/08/07 08:10:08;;;;;;;0.47;0.28;;;15.00;99.90;;;;;;4989472;28;20046;-66
2023/08/07 08:12:35;;;;;;;0.45;0.00;;;15.00;99.90;;;;;;4989295;28;20413;-66
2023/08/07 08:15:02;;;;;;;0.13;0.00;;;15.10;99.90;;;;;;4989417;28;20491;-66
2023/08/07 08:17:28;;;;;;;0.20;0.10;;;15.10;99.90;;;;;;4989167;28;20046;-66
2023/08/07 08:19:53;;;;;;;2.72;0.25;;;15.20;99.90;;;;;;4984441;28;20641;-66
2023/08/07 08:22:19;;;;;;;0.63;0.17;;;15.30;99.90;;;;;;4987332;28;20053;-66
2023/08/07 08:24:45;;;;;;;1.08;0.20;;;15.50;99.90;;;;;;4988912;28;20186;-66
2023/08/07 08:27:11;;;;;;;0.10;0.08;;;15.80;99.90;;;;;;4985213;28;20040;-67
2023/08/07 08:29:36;;;;;;;0.15;0.05;;;16.00;99.90;;;;;;4989899;28;20038;-67
2023/08/07 08:32:02;;;;;;;0.50;0.13;;;16.20;99.90;;;;;;4987286;28;20455;-66
2023/08/07 08:34:28;;;;;;;0.20;0.10;;;16.20;99.90;;;;;;4990165;28;20058;-66
2023/08/07 08:36:54;;;;;;;0.10;0.00;;;16.10;99.90;;;;;;4979205;28;20133;-67
2023/08/07 08:39:20;;;;;;;0.40;0.10;;;15.80;99.90;;;;;;4977355;28;20149;-66
2023/08/07 08:41:49;;;;;;;0.95;0.40;;;15.50;99.90;;;;;;4979768;28;20054;-66
2023/08/07 08:44:17;;;;;;;0.82;0.38;;;15.20;99.90;;;;;;4986683;28;20057;-66
2023/08/07 08:46:43;;;;;;;0.03;0.00;;;15.00;99.90;;;;;;4978194;28;20043;-66
2023/08/07 08:49:10;;;;;;;0.32;0.32;;;15.10;99.90;;;;;;4977053;28;20043;-66
2023/08/07 08:51:37;;;;;;;0.00;0.00;;;15.40;99.90;;;;;;4982777;28;20138;-65
2023/08/07 08:54:03;;;;;;;0.20;0.20;;;15.70;99.90;;;;;;4987971;28;20431;-65
2023/08/07 08:56:32;;;;;;;0.90;0.20;;;15.90;99.90;;;;;;4983545;28;20037;-66
2023/08/07 08:58:58;;;;;;;0.00;0.00;;;16.00;99.90;;;;;;4980348;28;20054;-66
2023/08/07 09:01:24;;;;;;;0.10;0.10;;;16.20;99.90;;;;;;4980019;28;20042;-65
2023/08/07 09:03:55;;;;;;;0.25;0.13;;;16.30;99.90;;;;;;4978720;28;20053;-66
2023/08/07 09:06:21;;;;;;;0.45;0.10;;;16.60;99.90;;;;;;4980117;28;20471;-65
2023/08/07 09:08:49;;;;;;;1.58;0.20;;;17.00;99.90;;;;;;4981109;28;20136;-65
2023/08/07 09:11:16;;;;;;;1.02;0.10;;;17.10;99.90;;;;;;4983105;28;20089;-65
2023/08/07 09:13:44;;;;;;;0.28;0.13;;;17.20;99.90;;;;;;4986564;28;20545;-66
2023/08/07 09:16:11;;;;;;;0.10;0.10;;;17.30;99.90;;;;;;4979987;28;20038;-65
2023/08/07 09:18:37;;;;;;;2.42;0.17;;;17.30;99.90;;;;;;4986705;28;20121;-65
2023/08/07 09:21:03;;;;;;;2.30;0.20;;;17.40;99.90;;;;;;4986232;28;20046;-65
2023/08/07 09:23:29;;;;;;;0.40;0.25;;;17.50;99.90;;;;;;4982870;28;20043;-65
2023/08/07 09:26:04;;;;;;;0.03;0.00;;;17.50;99.90;;;;;;4986403;28;20431;-65
2023/08/07 09:28:32;;;;;;;0.93;0.60;;;17.50;99.90;;;;;;4986884;28;20049;-66
2023/08/07 09:30:59;;;;;;;0.20;0.15;;;17.30;99.90;;;;;;4987064;28;20046;-66
2023/08/07 09:33:30;;;;;;;1.73;0.28;;;17.40;99.90;;;;;;4987938;28;20053;-66
2023/08/07 09:36:00;;;;;;;0.50;0.17;;;17.70;99.90;;;;;;4985091;28;20048;-66
2023/08/07 09:38:32;;;;;;;1.02;0.20;;;17.80;99.90;;;;;;4986203;28;20038;-66
2023/08/07 09:41:03;;;;;;;0.15;0.13;;;18.00;99.90;;;;;;4984972;28;20518;-66
2023/08/07 09:43:29;;;;;;;0.40;0.10;;;18.00;99.90;;;;;;4983529;28;20116;-65
2023/08/07 09:46:05;;;;;;;0.73;0.17;;;17.90;99.90;;;;;;4984720;28;20394;-66
2023/08/07 09:48:54;;;;;;;1.65;0.22;;;17.80;99.90;;;;;;4983046;28;20034;-66
2023/08/07 09:51:21;;;;;;;0.57;0.17;;;17.80;99.90;;;;;;4983626;28;20109;-65
2023/08/07 09:53:47;;;;;;;0.38;0.10;;;18.00;99.90;;;;;;4982876;28;20434;-65
2023/08/07 09:56:14;;;;;;;1.35;0.75;;;18.20;99.90;;;;;;4986462;28;20038;-65
2023/08/07 09:58:46;;;;;;;0.60;0.22;;;18.60;99.90;;;;;;4985649;28;20030;-66
2023/08/07 10:01:15;;;;;;;0.68;0.20;;;18.80;99.90;;;;;;4985164;28;20138;-66
2023/08/07 10:03:41;;;;;;;1.63;0.63;;;19.00;99.90;;;;;;4987288;28;20038;-66
2023/08/07 10:06:08;;;;;;;0.00;0.00;;;18.80;99.90;;;;;;4988210;28;20057;-66
2023/08/07 10:08:35;;;;;;;0.55;0.10;;;18.40;99.90;;;;;;4985999;28;20077;-66
2023/08/07 10:11:02;;;;;;;0.10;0.05;;;18.20;99.90;;;;;;4981668;28;20121;-66
2023/08/07 10:13:29;;;;;;;0.15;0.13;;;17.90;99.90;;;;;;4981572;28;20088;-66
2023/08/07 10:15:55;;;;;;;0.60;0.10;;;18.10;99.90;;;;;;4978461;28;20054;-65
2023/08/07 10:18:21;;;;;;;0.80;0.10;;;18.50;99.90;;;;;;4985269;28;20191;-66
2023/08/07 10:20:47;;;;;;;1.95;0.35;;;18.90;99.90;;;;;;4978620;28;20051;-65
2023/08/07 10:23:17;;;;;;;1.05;0.35;;;19.20;99.90;;;;;;4982522;28;20042;-65
2023/08/07 10:25:46;;;;;;;0.30;0.10;;;19.20;99.90;;;;;;4983219;28;20117;-65
2023/08/07 10:28:16;;;;;;;0.20;0.10;;;19.10;99.90;;;;;;4987424;28;20120;-64
2023/08/07 10:30:42;;;;;;;0.15;0.00;;;18.80;99.90;;;;;;4989633;28;20073;-66
2023/08/07 10:33:11;;;;;;;0.20;0.10;;;18.40;99.90;;;;;;4988920;28;20042;-66
2023/08/07 10:35:37;;;;;;;1.35;0.35;;;18.10;99.90;;;;;;4982652;28;20051;-66
2023/08/07 10:38:09;;;;;;;0.38;0.22;;;17.80;99.90;;;;;;4989197;28;20133;-66
2023/08/07 10:40:54;;;;;;;1.75;0.20;;;17.70;99.90;;;;;;4988968;28;20129;-66
2023/08/07 10:43:24;;;;;;;0.20;0.20;;;17.60;99.90;;;;;;4983684;28;20049;-66
2023/08/07 10:45:50;;;;;;;4.65;0.68;;;17.60;99.90;;;;;;4983440;28;20046;-65
2023/08/07 10:48:20;;;;;;;0.50;0.20;;;17.60;99.90;;;;;;4988403;28;20038;-66
2023/08/07 10:50:54;;;;;;;2.60;0.60;;;17.80;99.90;;;;;;4981751;28;20042;-65
2023/08/07 10:53:34;;;;;;;0.90;0.28;;;18.20;99.90;;;;;;4994035;28;20237;-66
2023/08/07 10:56:07;;;;;;;1.17;0.15;;;18.50;99.90;;;;;;4983853;28;20443;-66
2023/08/07 10:58:39;;;;;;;0.08;0.00;;;18.50;99.90;;;;;;4985931;28;20034;-66
2023/08/07 11:01:26;;;;;;;0.68;0.35;;;18.30;99.90;;;;;;4981435;28;20518;-66
2023/08/07 11:03:53;;;;;;;0.32;0.10;;;18.10;99.90;;;;;;4986556;28;20564;-66
2023/08/07 11:06:31;;;;;;;0.10;0.10;;;17.70;99.90;;;;;;4986944;28;20472;-67
2023/08/07 11:08:57;;;;;;;0.10;0.00;;;17.40;99.90;;;;;;4987998;28;20046;-67
2023/08/07 11:11:23;;;;;;;0.65;0.45;;;17.30;99.90;;;;;;4977514;28;20110;-67
2023/08/07 11:13:50;;;;;;;0.55;0.10;;;17.20;99.90;;;;;;4984741;28;20462;-68
2023/08/07 11:16:16;;;;;;;1.13;0.17;;;17.20;99.90;;;;;;4982719;28;20487;-67
2023/08/07 11:18:43;;;;;;;0.22;0.10;;;17.40;99.90;;;;;;4986938;28;20529;-66
2023/08/07 11:21:12;;;;;;;0.40;0.10;;;18.00;99.90;;;;;;4982154;28;20066;-66
2023/08/07 11:23:39;;;;;;;0.68;0.22;;;18.40;99.90;;;;;;4987199;28;20772;-67
2023/08/07 11:26:05;;;;;;;0.00;0.00;;;18.40;99.90;;;;;;4985597;28;20502;-68
2023/08/07 11:28:32;;;;;;;0.38;0.10;;;18.10;99.90;;;;;;4984890;28;20037;-68
2023/08/07 11:30:58;;;;;;;1.38;0.22;;;17.90;99.90;;;;;;4983346;28;20057;-67
2023/08/07 11:33:25;;;;;;;1.17;0.20;;;18.00;99.90;;;;;;4983606;28;20109;-67
2023/08/07 11:35:52;;;;;;;0.10;0.10;;;18.50;99.90;;;;;;4979031;28;20058;-68
2023/08/07 11:38:35;;;;;;;1.30;0.00;;;18.90;99.90;;;;;;4958406;28;20525;-67
2023/08/07 11:41:02;;;;;;;0.65;0.10;;;19.00;99.90;;;;;;4964170;28;20055;-67
2023/08/07 11:43:32;;;;;;;0.75;0.20;;;18.70;99.90;;;;;;4963644;28;20043;-67
2023/08/07 11:46:00;;;;;;;0.35;0.20;;;18.50;99.90;;;;;;4946787;28;20049;-67
2023/08/07 11:48:27;;;;;;;0.90;0.10;;;18.40;99.90;;;;;;4970276;28;20108;-66
2023/08/07 11:50:54;;;;;;;0.00;0.00;;;18.10;99.90;;;;;;4964982;28;20086;-67
2023/08/07 11:53:26;;;;;;;0.10;0.00;;;18.00;99.90;;;;;;4947226;28;20039;-67
2023/08/07 11:56:15;;;;;;;1.85;0.10;;;18.00;99.90;;;;;;4967408;28;20057;-67
2023/08/07 11:58:45;;;;;;;0.57;0.15;;;18.30;99.90;;;;;;4960731;28;20085;-67
2023/08/07 12:01:14;;;;;;;1.15;0.20;;;18.40;99.90;;;;;;4967962;28;20043;-67
2023/08/07 12:03:43;;;;;;;7.43;0.88;;;18.50;99.90;;;;;;4967070;28;20043;-67
2023/08/07 12:06:09;;;;;;;0.28;0.00;;;18.30;99.90;;;;;;4952547;28;20113;-67
2023/08/07 12:08:38;;;;;;;1.42;0.30;;;18.30;99.90;;;;;;4966020;28;20464;-67
2023/08/07 12:11:09;;;;;;;1.58;0.38;;;18.50;99.90;;;;;;4972281;28;20122;-67
2023/08/07 12:13:38;;;;;;;0.03;0.00;;;18.80;99.90;;;;;;4970944;28;20046;-67
2023/08/07 12:16:04;;;;;;;0.43;0.20;;;19.10;99.90;;;;;;4968406;28;20035;-67
2023/08/07 12:18:31;;;;;;;1.80;0.35;;;19.20;99.90;;;;;;4967764;28;20058;-68
2023/08/07 12:21:01;;;;;;;0.82;0.30;;;19.20;99.90;;;;;;4947515;28;20081;-68
2023/08/07 12:23:28;;;;;;;3.25;0.43;;;19.10;99.90;;;;;;4966262;28;20388;-69
2023/08/07 12:25:54;;;;;;;0.45;0.22;;;18.80;99.90;;;;;;4959984;28;20106;-69
2023/08/07 12:28:20;;;;;;;0.10;0.10;;;18.50;99.90;;;;;;4965572;28;20078;-68
2023/08/07 12:30:47;;;;;;;0.52;0.20;;;18.30;99.90;;;;;;4961493;28;20043;-68
2023/08/07 12:33:14;;;;;;;1.30;0.30;;;18.00;99.90;;;;;;4971652;28;20130;-67
2023/08/07 12:35:41;;;;;;;0.00;0.00;;;18.00;99.90;;;;;;4966067;28;20117;-67
2023/08/07 12:38:09;;;;;;;0.10;0.05;;;17.70;99.90;;;;;;4983970;28;20055;-67
2023/08/07 12:40:36;;;;;;;0.20;0.10;;;17.40;99.90;;;;;;4982940;28;20483;-68
2023/08/07 12:43:02;;;;;;;0.25;0.00;;;17.10;99.90;;;;;;4983166;28;20467;-68
2023/08/07 12:45:28;;;;;;;1.02;0.08;;;17.00;99.90;;;;;;4976196;28;20496;-67
2023/08/07 12:47:53;;;;;;;0.00;0.00;;;17.00;99.90;;;;;;4984674;28;20046;-67